sensor_id;sensor_type;location;lat;lon;timestamp;P1;durP1;ratioP1;P2;durP2;ratioP2
10381;SDS011;11635;53.636;10.120;2023-03-23T00:01:00;8.60;;;5.43;;
10381;SDS011;11635;53.636;10.120;2023-03-23T00:03:27;9.00;;;6.05;;
10381;SDS011;11635;53.636;10.120;2023-03-23T00:05:58;8.52;;;5.93;;
10381;SDS011;11635;53.636;10.120;2023-03-23T00:08:31;9.25;;;6.22;;
10381;SDS011;11635;53.636;10.120;2023-03-23T00:10:58;10.18;;;6.53;;
10381;SDS011;11635;53.636;10.120;2023-03-23T00:13:26;11.10;;;7.18;;
10381;SDS011;11635;53.636;10.120;2023-03-23T00:15:53;9.05;;;6.63;;
10381;SDS011;11635;53.636;10.120;2023-03-23T00:18:22;11.23;;;7.60;;
10381;SDS011;11635;53.636;10.120;2023-03-23T00:20:51;12.20;;;8.20;;
10381;SDS011;11635;53.636;10.120;2023-03-23T00:23:19;8.93;;;7.30;;
10381;SDS011;11635;53.636;10.120;2023-03-23T00:25:46;12.00;;;7.60;;
10381;SDS011;11635;53.636;10.120;2023-03-23T00:28:13;9.75;;;7.22;;
10381;SDS011;11635;53.636;10.120;2023-03-23T00:30:39;14.02;;;8.18;;
10381;SDS011;11635;53.636;10.120;2023-03-23T00:33:06;13.75;;;8.52;;
10381;SDS011;11635;53.636;10.120;2023-03-23T00:35:33;10.63;;;8.07;;
10381;SDS011;11635;53.636;10.120;2023-03-23T00:38:00;11.88;;;8.75;;
10381;SDS011;11635;53.636;10.120;2023-03-23T00:40:28;12.32;;;8.77;;
10381;SDS011;11635;53.636;10.120;2023-03-23T00:42:56;12.98;;;9.65;;
10381;SDS011;11635;53.636;10.120;2023-03-23T00:45:22;14.30;;;9.80;;
10381;SDS011;11635;53.636;10.120;2023-03-23T00:47:49;12.10;;;9.88;;
10381;SDS011;11635;53.636;10.120;2023-03-23T00:50:16;11.63;;;10.32;;
10381;SDS011;11635;53.636;10.120;2023-03-23T00:52:43;14.95;;;10.27;;
10381;SDS011;11635;53.636;10.120;2023-03-23T00:55:09;15.02;;;10.20;;
10381;SDS011;11635;53.636;10.120;2023-03-23T00:57:37;13.45;;;11.07;;
10381;SDS011;11635;53.636;10.120;2023-03-23T01:00:04;14.70;;;11.40;;
10381;SDS011;11635;53.636;10.120;2023-03-23T01:02:33;16.33;;;11.57;;
10381;SDS011;11635;53.636;10.120;2023-03-23T01:05:00;14.32;;;11.73;;
10381;SDS011;11635;53.636;10.120;2023-03-23T01:07:28;15.18;;;12.40;;
10381;SDS011;11635;53.636;10.120;2023-03-23T01:09:56;15.65;;;12.93;;
10381;SDS011;11635;53.636;10.120;2023-03-23T01:12:22;14.23;;;12.52;;
10381;SDS011;11635;53.636;10.120;2023-03-23T01:14:51;17.48;;;12.10;;
10381;SDS011;11635;53.636;10.120;2023-03-23T01:17:17;15.13;;;12.20;;
10381;SDS011;11635;53.636;10.120;2023-03-23T01:19:45;15.23;;;12.38;;
10381;SDS011;11635;53.636;10.120;2023-03-23T01:22:12;15.98;;;12.20;;
10381;SDS011;11635;53.636;10.120;2023-03-23T01:24:38;14.68;;;13.07;;
10381;SDS011;11635;53.636;10.120;2023-03-23T01:27:05;15.98;;;13.10;;
10381;SDS011;11635;53.636;10.120;2023-03-23T01:29:31;18.73;;;13.80;;
10381;SDS011;11635;53.636;10.120;2023-03-23T01:31:59;15.90;;;13.30;;
10381;SDS011;11635;53.636;10.120;2023-03-23T01:34:25;17.30;;;13.70;;
10381;SDS011;11635;53.636;10.120;2023-03-23T01:36:52;16.90;;;14.15;;
10381;SDS011;11635;53.636;10.120;2023-03-23T01:39:18;18.67;;;14.52;;
10381;SDS011;11635;53.636;10.120;2023-03-23T01:41:45;15.90;;;13.68;;
10381;SDS011;11635;53.636;10.120;2023-03-23T01:46:53;18.30;;;13.75;;
10381;SDS011;11635;53.636;10.120;2023-03-23T01:49:22;17.60;;;14.25;;
10381;SDS011;11635;53.636;10.120;2023-03-23T01:51:51;18.55;;;13.73;;
10381;SDS011;11635;53.636;10.120;2023-03-23T01:54:18;17.38;;;13.57;;
10381;SDS011;11635;53.636;10.120;2023-03-23T01:56:47;17.30;;;13.20;;
10381;SDS011;11635;53.636;10.120;2023-03-23T01:59:14;16.65;;;14.10;;
10381;SDS011;11635;53.636;10.120;2023-03-23T02:01:41;18.60;;;14.23;;
10381;SDS011;11635;53.636;10.120;2023-03-23T02:04:10;20.20;;;15.00;;
10381;SDS011;11635;53.636;10.120;2023-03-23T02:06:39;19.52;;;14.45;;
10381;SDS011;11635;53.636;10.120;2023-03-23T02:09:05;17.73;;;14.07;;
10381;SDS011;11635;53.636;10.120;2023-03-23T02:11:32;16.48;;;13.52;;
10381;SDS011;11635;53.636;10.120;2023-03-23T02:13:58;19.27;;;14.57;;
10381;SDS011;11635;53.636;10.120;2023-03-23T02:16:29;19.80;;;15.20;;
10381;SDS011;11635;53.636;10.120;2023-03-23T02:18:57;16.65;;;13.25;;
10381;SDS011;11635;53.636;10.120;2023-03-23T02:21:33;17.20;;;13.48;;
10381;SDS011;11635;53.636;10.120;2023-03-23T02:24:22;20.13;;;14.75;;
10381;SDS011;11635;53.636;10.120;2023-03-23T02:26:55;16.58;;;13.55;;
10381;SDS011;11635;53.636;10.120;2023-03-23T02:29:37;16.20;;;14.05;;
10381;SDS011;11635;53.636;10.120;2023-03-23T02:32:10;16.33;;;12.82;;
10381;SDS011;11635;53.636;10.120;2023-03-23T02:34:40;18.55;;;12.90;;
10381;SDS011;11635;53.636;10.120;2023-03-23T02:37:08;19.15;;;14.15;;
10381;SDS011;11635;53.636;10.120;2023-03-23T02:39:36;16.85;;;13.00;;
10381;SDS011;11635;53.636;10.120;2023-03-23T02:42:05;19.52;;;15.18;;
10381;SDS011;11635;53.636;10.120;2023-03-23T02:44:32;15.48;;;13.73;;
10381;SDS011;11635;53.636;10.120;2023-03-23T02:47:00;18.23;;;13.95;;
10381;SDS011;11635;53.636;10.120;2023-03-23T02:49:27;18.13;;;14.18;;
10381;SDS011;11635;53.636;10.120;2023-03-23T02:51:58;18.27;;;15.43;;
10381;SDS011;11635;53.636;10.120;2023-03-23T02:54:25;18.58;;;14.70;;
10381;SDS011;11635;53.636;10.120;2023-03-23T02:56:52;18.08;;;14.35;;
10381;SDS011;11635;53.636;10.120;2023-03-23T02:59:19;21.00;;;14.75;;
10381;SDS011;11635;53.636;10.120;2023-03-23T03:01:56;16.17;;;14.15;;
10381;SDS011;11635;53.636;10.120;2023-03-23T03:04:24;18.40;;;14.48;;
10381;SDS011;11635;53.636;10.120;2023-03-23T03:06:56;21.35;;;14.68;;
10381;SDS011;11635;53.636;10.120;2023-03-23T03:09:29;20.15;;;15.40;;
10381;SDS011;11635;53.636;10.120;2023-03-23T03:11:58;17.35;;;13.82;;
10381;SDS011;11635;53.636;10.120;2023-03-23T03:14:26;16.08;;;13.98;;
10381;SDS011;11635;53.636;10.120;2023-03-23T03:16:56;17.85;;;15.13;;
10381;SDS011;11635;53.636;10.120;2023-03-23T03:19:26;17.48;;;14.55;;
10381;SDS011;11635;53.636;10.120;2023-03-23T03:21:54;16.45;;;14.57;;
10381;SDS011;11635;53.636;10.120;2023-03-23T03:24:22;18.42;;;14.10;;
10381;SDS011;11635;53.636;10.120;2023-03-23T03:26:52;16.52;;;13.73;;
10381;SDS011;11635;53.636;10.120;2023-03-23T03:29:25;16.67;;;13.98;;
10381;SDS011;11635;53.636;10.120;2023-03-23T03:31:52;16.63;;;14.13;;
10381;SDS011;11635;53.636;10.120;2023-03-23T03:34:20;16.60;;;14.32;;
10381;SDS011;11635;53.636;10.120;2023-03-23T03:36:48;17.55;;;14.60;;
10381;SDS011;11635;53.636;10.120;2023-03-23T03:39:15;18.58;;;15.52;;
10381;SDS011;11635;53.636;10.120;2023-03-23T03:41:42;16.70;;;14.10;;
10381;SDS011;11635;53.636;10.120;2023-03-23T03:44:11;20.50;;;15.57;;
10381;SDS011;11635;53.636;10.120;2023-03-23T03:46:37;18.13;;;14.15;;
10381;SDS011;11635;53.636;10.120;2023-03-23T03:49:05;17.50;;;15.15;;
10381;SDS011;11635;53.636;10.120;2023-03-23T03:51:32;18.67;;;14.55;;
10381;SDS011;11635;53.636;10.120;2023-03-23T03:53:58;18.85;;;15.73;;
10381;SDS011;11635;53.636;10.120;2023-03-23T03:56:24;18.08;;;14.90;;
10381;SDS011;11635;53.636;10.120;2023-03-23T03:58:51;21.20;;;15.27;;
10381;SDS011;11635;53.636;10.120;2023-03-23T04:01:19;16.20;;;14.45;;
10381;SDS011;11635;53.636;10.120;2023-03-23T04:03:47;19.77;;;15.65;;
10381;SDS011;11635;53.636;10.120;2023-03-23T04:06:14;18.25;;;15.07;;
10381;SDS011;11635;53.636;10.120;2023-03-23T04:08:40;17.42;;;14.95;;
10381;SDS011;11635;53.636;10.120;2023-03-23T04:11:08;18.58;;;14.57;;
10381;SDS011;11635;53.636;10.120;2023-03-23T04:13:34;19.52;;;15.55;;
10381;SDS011;11635;53.636;10.120;2023-03-23T04:16:00;17.70;;;15.88;;
10381;SDS011;11635;53.636;10.120;2023-03-23T04:18:28;21.15;;;16.70;;
10381;SDS011;11635;53.636;10.120;2023-03-23T04:20:57;18.38;;;15.63;;
10381;SDS011;11635;53.636;10.120;2023-03-23T04:23:24;20.73;;;15.52;;
10381;SDS011;11635;53.636;10.120;2023-03-23T04:25:52;16.80;;;14.73;;
10381;SDS011;11635;53.636;10.120;2023-03-23T04:28:22;22.27;;;16.20;;
10381;SDS011;11635;53.636;10.120;2023-03-23T04:30:49;17.17;;;15.02;;
10381;SDS011;11635;53.636;10.120;2023-03-23T04:33:18;17.77;;;14.88;;
10381;SDS011;11635;53.636;10.120;2023-03-23T04:35:45;17.00;;;15.05;;
10381;SDS011;11635;53.636;10.120;2023-03-23T04:38:13;21.67;;;15.57;;
10381;SDS011;11635;53.636;10.120;2023-03-23T04:40:40;19.75;;;16.17;;
10381;SDS011;11635;53.636;10.120;2023-03-23T04:43:06;16.05;;;14.35;;
10381;SDS011;11635;53.636;10.120;2023-03-23T04:45:33;21.95;;;16.63;;
10381;SDS011;11635;53.636;10.120;2023-03-23T04:48:02;17.58;;;14.70;;
10381;SDS011;11635;53.636;10.120;2023-03-23T04:50:31;17.35;;;15.10;;
10381;SDS011;11635;53.636;10.120;2023-03-23T04:52:59;17.17;;;14.85;;
10381;SDS011;11635;53.636;10.120;2023-03-23T04:55:29;17.67;;;14.68;;
10381;SDS011;11635;53.636;10.120;2023-03-23T04:57:56;16.48;;;14.07;;
10381;SDS011;11635;53.636;10.120;2023-03-23T05:00:25;16.63;;;14.95;;
10381;SDS011;11635;53.636;10.120;2023-03-23T05:02:51;18.00;;;14.50;;
10381;SDS011;11635;53.636;10.120;2023-03-23T05:05:20;19.35;;;14.55;;
10381;SDS011;11635;53.636;10.120;2023-03-23T05:07:46;17.60;;;14.55;;
10381;SDS011;11635;53.636;10.120;2023-03-23T05:10:15;18.48;;;14.13;;
10381;SDS011;11635;53.636;10.120;2023-03-23T05:12:41;17.85;;;15.43;;
10381;SDS011;11635;53.636;10.120;2023-03-23T05:15:09;19.17;;;15.65;;
10381;SDS011;11635;53.636;10.120;2023-03-23T05:17:36;19.38;;;15.18;;
10381;SDS011;11635;53.636;10.120;2023-03-23T05:20:03;17.23;;;14.55;;
10381;SDS011;11635;53.636;10.120;2023-03-23T05:22:31;19.05;;;14.68;;
10381;SDS011;11635;53.636;10.120;2023-03-23T05:24:57;15.80;;;14.05;;
10381;SDS011;11635;53.636;10.120;2023-03-23T05:27:25;18.83;;;15.70;;
10381;SDS011;11635;53.636;10.120;2023-03-23T05:29:53;17.20;;;14.77;;
10381;SDS011;11635;53.636;10.120;2023-03-23T05:32:19;18.10;;;15.40;;
10381;SDS011;11635;53.636;10.120;2023-03-23T05:34:45;15.73;;;14.13;;
10381;SDS011;11635;53.636;10.120;2023-03-23T05:37:13;18.73;;;15.30;;
10381;SDS011;11635;53.636;10.120;2023-03-23T05:39:39;15.07;;;13.32;;
10381;SDS011;11635;53.636;10.120;2023-03-23T05:42:06;15.15;;;13.52;;
10381;SDS011;11635;53.636;10.120;2023-03-23T05:44:35;17.17;;;12.50;;
10381;SDS011;11635;53.636;10.120;2023-03-23T05:47:02;14.00;;;12.50;;
10381;SDS011;11635;53.636;10.120;2023-03-23T05:49:29;13.48;;;12.07;;
10381;SDS011;11635;53.636;10.120;2023-03-23T05:51:55;16.55;;;11.40;;
10381;SDS011;11635;53.636;10.120;2023-03-23T05:54:22;11.95;;;10.77;;
10381;SDS011;11635;53.636;10.120;2023-03-23T05:56:48;12.80;;;11.13;;
10381;SDS011;11635;53.636;10.120;2023-03-23T05:59:15;12.13;;;10.93;;
10381;SDS011;11635;53.636;10.120;2023-03-23T06:01:42;11.15;;;9.38;;
10381;SDS011;11635;53.636;10.120;2023-03-23T06:04:09;12.80;;;9.00;;
10381;SDS011;11635;53.636;10.120;2023-03-23T06:06:36;10.82;;;9.02;;
10381;SDS011;11635;53.636;10.120;2023-03-23T06:09:03;12.10;;;9.15;;
10381;SDS011;11635;53.636;10.120;2023-03-23T06:11:30;10.25;;;9.20;;
10381;SDS011;11635;53.636;10.120;2023-03-23T06:13:56;12.27;;;8.40;;
10381;SDS011;11635;53.636;10.120;2023-03-23T06:16:22;8.77;;;7.93;;
10381;SDS011;11635;53.636;10.120;2023-03-23T06:18:50;9.15;;;7.40;;
10381;SDS011;11635;53.636;10.120;2023-03-23T06:21:17;9.40;;;7.22;;
10381;SDS011;11635;53.636;10.120;2023-03-23T06:23:44;10.23;;;7.63;;
10381;SDS011;11635;53.636;10.120;2023-03-23T06:26:13;10.02;;;7.25;;
10381;SDS011;11635;53.636;10.120;2023-03-23T06:28:42;8.00;;;7.13;;
10381;SDS011;11635;53.636;10.120;2023-03-23T06:31:08;9.55;;;6.82;;
10381;SDS011;11635;53.636;10.120;2023-03-23T06:33:36;9.57;;;7.00;;
10381;SDS011;11635;53.636;10.120;2023-03-23T06:36:05;9.85;;;6.60;;
10381;SDS011;11635;53.636;10.120;2023-03-23T06:38:31;12.45;;;7.10;;
10381;SDS011;11635;53.636;10.120;2023-03-23T06:40:58;8.45;;;6.25;;
10381;SDS011;11635;53.636;10.120;2023-03-23T06:43:24;7.00;;;6.30;;
10381;SDS011;11635;53.636;10.120;2023-03-23T06:45:50;9.10;;;6.40;;
10381;SDS011;11635;53.636;10.120;2023-03-23T06:48:17;8.90;;;6.20;;
10381;SDS011;11635;53.636;10.120;2023-03-23T06:50:43;7.97;;;6.07;;
10381;SDS011;11635;53.636;10.120;2023-03-23T06:53:12;8.40;;;6.03;;
10381;SDS011;11635;53.636;10.120;2023-03-23T06:55:38;7.60;;;5.53;;
10381;SDS011;11635;53.636;10.120;2023-03-23T06:58:05;8.23;;;5.22;;
10381;SDS011;11635;53.636;10.120;2023-03-23T07:00:32;5.78;;;4.55;;
10381;SDS011;11635;53.636;10.120;2023-03-23T07:02:59;5.63;;;5.07;;
10381;SDS011;11635;53.636;10.120;2023-03-23T07:05:26;7.97;;;4.88;;
10381;SDS011;11635;53.636;10.120;2023-03-23T07:07:53;5.90;;;5.07;;
10381;SDS011;11635;53.636;10.120;2023-03-23T07:10:22;7.40;;;4.80;;
10381;SDS011;11635;53.636;10.120;2023-03-23T07:12:49;9.25;;;5.70;;
10381;SDS011;11635;53.636;10.120;2023-03-23T07:15:16;6.40;;;4.72;;
10381;SDS011;11635;53.636;10.120;2023-03-23T07:17:43;6.72;;;4.68;;
10381;SDS011;11635;53.636;10.120;2023-03-23T07:20:10;7.03;;;4.40;;
10381;SDS011;11635;53.636;10.120;2023-03-23T07:22:37;6.28;;;4.75;;
10381;SDS011;11635;53.636;10.120;2023-03-23T07:25:04;7.93;;;4.43;;
10381;SDS011;11635;53.636;10.120;2023-03-23T07:27:32;5.45;;;4.07;;
10381;SDS011;11635;53.636;10.120;2023-03-23T07:29:58;6.30;;;4.05;;
10381;SDS011;11635;53.636;10.120;2023-03-23T07:32:25;5.03;;;4.47;;
10381;SDS011;11635;53.636;10.120;2023-03-23T07:34:51;6.60;;;4.63;;
10381;SDS011;11635;53.636;10.120;2023-03-23T07:37:17;7.05;;;4.53;;
10381;SDS011;11635;53.636;10.120;2023-03-23T07:39:44;5.65;;;4.57;;
10381;SDS011;11635;53.636;10.120;2023-03-23T07:42:10;5.22;;;4.32;;
10381;SDS011;11635;53.636;10.120;2023-03-23T07:44:38;5.32;;;4.38;;
10381;SDS011;11635;53.636;10.120;2023-03-23T07:47:04;7.97;;;4.47;;
10381;SDS011;11635;53.636;10.120;2023-03-23T07:49:31;5.15;;;4.30;;
10381;SDS011;11635;53.636;10.120;2023-03-23T07:51:57;5.18;;;4.00;;
10381;SDS011;11635;53.636;10.120;2023-03-23T07:54:26;7.18;;;4.60;;
10381;SDS011;11635;53.636;10.120;2023-03-23T07:56:53;5.40;;;4.03;;
10381;SDS011;11635;53.636;10.120;2023-03-23T07:59:19;6.07;;;4.22;;
10381;SDS011;11635;53.636;10.120;2023-03-23T08:01:47;5.97;;;4.30;;
10381;SDS011;11635;53.636;10.120;2023-03-23T08:04:13;5.90;;;4.20;;
10381;SDS011;11635;53.636;10.120;2023-03-23T08:06:40;5.32;;;4.60;;
10381;SDS011;11635;53.636;10.120;2023-03-23T08:09:07;7.93;;;5.18;;
10381;SDS011;11635;53.636;10.120;2023-03-23T08:11:35;6.95;;;5.07;;
10381;SDS011;11635;53.636;10.120;2023-03-23T08:14:02;6.45;;;4.72;;
10381;SDS011;11635;53.636;10.120;2023-03-23T08:16:29;7.18;;;4.80;;
10381;SDS011;11635;53.636;10.120;2023-03-23T08:18:56;5.68;;;5.10;;
10381;SDS011;11635;53.636;10.120;2023-03-23T08:21:23;6.63;;;5.68;;
10381;SDS011;11635;53.636;10.120;2023-03-23T08:23:49;8.35;;;5.65;;
10381;SDS011;11635;53.636;10.120;2023-03-23T08:26:15;7.03;;;5.70;;
10381;SDS011;11635;53.636;10.120;2023-03-23T08:28:42;6.93;;;5.82;;
10381;SDS011;11635;53.636;10.120;2023-03-23T08:31:09;5.93;;;5.38;;
10381;SDS011;11635;53.636;10.120;2023-03-23T08:33:35;6.22;;;5.63;;
10381;SDS011;11635;53.636;10.120;2023-03-23T08:36:03;6.18;;;5.40;;
10381;SDS011;11635;53.636;10.120;2023-03-23T08:38:30;6.47;;;5.88;;
10381;SDS011;11635;53.636;10.120;2023-03-23T08:40:57;6.45;;;3.40;;
10381;SDS011;11635;53.636;10.120;2023-03-23T08:43:24;7.30;;;4.07;;
10381;SDS011;11635;53.636;10.120;2023-03-23T08:45:50;3.38;;;3.08;;
10381;SDS011;11635;53.636;10.120;2023-03-23T08:48:17;6.07;;;4.03;;
10381;SDS011;11635;53.636;10.120;2023-03-23T08:50:43;5.32;;;4.35;;
10381;SDS011;11635;53.636;10.120;2023-03-23T08:53:11;5.28;;;4.10;;
10381;SDS011;11635;53.636;10.120;2023-03-23T08:55:37;7.15;;;4.05;;
10381;SDS011;11635;53.636;10.120;2023-03-23T08:58:04;3.50;;;3.20;;
10381;SDS011;11635;53.636;10.120;2023-03-23T09:00:31;7.65;;;3.15;;
10381;SDS011;11635;53.636;10.120;2023-03-23T09:02:58;3.03;;;2.63;;
10381;SDS011;11635;53.636;10.120;2023-03-23T09:05:25;4.13;;;2.75;;
10381;SDS011;11635;53.636;10.120;2023-03-23T09:07:52;4.40;;;3.00;;
10381;SDS011;11635;53.636;10.120;2023-03-23T09:10:20;4.47;;;2.67;;
10381;SDS011;11635;53.636;10.120;2023-03-23T09:12:47;3.97;;;2.38;;
10381;SDS011;11635;53.636;10.120;2023-03-23T09:15:14;5.35;;;3.00;;
10381;SDS011;11635;53.636;10.120;2023-03-23T09:17:41;4.68;;;3.20;;
10381;SDS011;11635;53.636;10.120;2023-03-23T09:20:09;5.03;;;3.17;;
10381;SDS011;11635;53.636;10.120;2023-03-23T09:22:37;4.88;;;3.17;;
10381;SDS011;11635;53.636;10.120;2023-03-23T09:25:05;3.42;;;2.88;;
10381;SDS011;11635;53.636;10.120;2023-03-23T09:27:32;5.65;;;2.97;;
10381;SDS011;11635;53.636;10.120;2023-03-23T09:29:59;7.15;;;3.30;;
10381;SDS011;11635;53.636;10.120;2023-03-23T09:32:26;4.30;;;3.22;;
10381;SDS011;11635;53.636;10.120;2023-03-23T09:34:52;6.63;;;2.75;;
10381;SDS011;11635;53.636;10.120;2023-03-23T09:37:20;7.13;;;3.22;;
10381;SDS011;11635;53.636;10.120;2023-03-23T09:39:47;7.43;;;2.90;;
10381;SDS011;11635;53.636;10.120;2023-03-23T09:42:24;7.80;;;2.13;;
10381;SDS011;11635;53.636;10.120;2023-03-23T09:45:00;8.88;;;3.20;;
10381;SDS011;11635;53.636;10.120;2023-03-23T09:47:30;6.68;;;2.38;;
10381;SDS011;11635;53.636;10.120;2023-03-23T09:49:59;8.88;;;2.80;;
10381;SDS011;11635;53.636;10.120;2023-03-23T09:52:28;9.75;;;3.17;;
10381;SDS011;11635;53.636;10.120;2023-03-23T09:54:57;9.10;;;2.70;;
10381;SDS011;11635;53.636;10.120;2023-03-23T09:57:25;7.88;;;2.08;;
10381;SDS011;11635;53.636;10.120;2023-03-23T09:59:55;6.35;;;3.10;;
10381;SDS011;11635;53.636;10.120;2023-03-23T10:02:26;5.38;;;2.63;;
10381;SDS011;11635;53.636;10.120;2023-03-23T10:04:54;8.77;;;2.83;;
10381;SDS011;11635;53.636;10.120;2023-03-23T10:07:22;10.60;;;2.72;;
10381;SDS011;11635;53.636;10.120;2023-03-23T10:09:51;7.05;;;2.92;;
10381;SDS011;11635;53.636;10.120;2023-03-23T10:12:21;11.18;;;3.08;;
10381;SDS011;11635;53.636;10.120;2023-03-23T10:14:51;10.00;;;3.00;;
10381;SDS011;11635;53.636;10.120;2023-03-23T10:17:19;7.75;;;2.47;;
10381;SDS011;11635;53.636;10.120;2023-03-23T10:19:49;11.48;;;2.80;;
10381;SDS011;11635;53.636;10.120;2023-03-23T10:22:19;9.27;;;2.85;;
10381;SDS011;11635;53.636;10.120;2023-03-23T10:24:49;9.50;;;2.55;;
10381;SDS011;11635;53.636;10.120;2023-03-23T10:27:18;9.20;;;2.55;;
10381;SDS011;11635;53.636;10.120;2023-03-23T10:29:47;10.63;;;3.53;;
10381;SDS011;11635;53.636;10.120;2023-03-23T10:32:17;7.25;;;2.42;;
10381;SDS011;11635;53.636;10.120;2023-03-23T10:34:45;9.02;;;2.80;;
10381;SDS011;11635;53.636;10.120;2023-03-23T10:37:16;9.30;;;2.40;;
10381;SDS011;11635;53.636;10.120;2023-03-23T10:39:45;11.82;;;2.60;;
10381;SDS011;11635;53.636;10.120;2023-03-23T10:42:20;9.63;;;2.55;;
10381;SDS011;11635;53.636;10.120;2023-03-23T10:44:47;10.65;;;2.40;;
10381;SDS011;11635;53.636;10.120;2023-03-23T10:47:14;10.82;;;3.10;;
10381;SDS011;11635;53.636;10.120;2023-03-23T10:49:43;6.80;;;2.53;;
10381;SDS011;11635;53.636;10.120;2023-03-23T10:52:13;8.15;;;3.08;;
10381;SDS011;11635;53.636;10.120;2023-03-23T10:54:49;10.45;;;2.92;;
10381;SDS011;11635;53.636;10.120;2023-03-23T10:57:20;11.50;;;3.17;;
10381;SDS011;11635;53.636;10.120;2023-03-23T10:59:47;8.95;;;2.72;;
10381;SDS011;11635;53.636;10.120;2023-03-23T11:02:18;10.48;;;2.70;;
10381;SDS011;11635;53.636;10.120;2023-03-23T11:04:45;6.97;;;2.75;;
10381;SDS011;11635;53.636;10.120;2023-03-23T11:07:15;8.82;;;2.75;;
10381;SDS011;11635;53.636;10.120;2023-03-23T11:09:52;9.00;;;3.25;;
10381;SDS011;11635;53.636;10.120;2023-03-23T11:12:18;6.22;;;3.10;;
10381;SDS011;11635;53.636;10.120;2023-03-23T11:14:45;7.72;;;2.70;;
10381;SDS011;11635;53.636;10.120;2023-03-23T11:17:20;10.25;;;3.03;;
10381;SDS011;11635;53.636;10.120;2023-03-23T11:19:46;10.40;;;2.40;;
10381;SDS011;11635;53.636;10.120;2023-03-23T11:22:14;9.48;;;2.88;;
10381;SDS011;11635;53.636;10.120;2023-03-23T11:24:42;8.30;;;2.95;;
10381;SDS011;11635;53.636;10.120;2023-03-23T11:27:10;12.90;;;3.20;;
10381;SDS011;11635;53.636;10.120;2023-03-23T11:29:44;6.35;;;2.83;;
10381;SDS011;11635;53.636;10.120;2023-03-23T11:32:11;12.40;;;2.95;;
10381;SDS011;11635;53.636;10.120;2023-03-23T11:34:40;8.38;;;3.55;;
10381;SDS011;11635;53.636;10.120;2023-03-23T11:37:07;11.18;;;3.10;;
10381;SDS011;11635;53.636;10.120;2023-03-23T11:39:45;6.93;;;2.70;;
10381;SDS011;11635;53.636;10.120;2023-03-23T11:42:18;9.63;;;3.25;;
10381;SDS011;11635;53.636;10.120;2023-03-23T11:44:45;10.05;;;2.88;;
10381;SDS011;11635;53.636;10.120;2023-03-23T11:47:15;10.43;;;3.50;;
10381;SDS011;11635;53.636;10.120;2023-03-23T11:49:45;12.32;;;2.72;;
10381;SDS011;11635;53.636;10.120;2023-03-23T11:52:16;9.68;;;3.05;;
10381;SDS011;11635;53.636;10.120;2023-03-23T11:54:46;9.45;;;2.55;;
10381;SDS011;11635;53.636;10.120;2023-03-23T11:57:16;9.32;;;3.33;;
10381;SDS011;11635;53.636;10.120;2023-03-23T11:59:43;7.15;;;3.22;;
10381;SDS011;11635;53.636;10.120;2023-03-23T12:02:20;9.48;;;3.25;;
10381;SDS011;11635;53.636;10.120;2023-03-23T12:04:57;9.02;;;3.10;;
10381;SDS011;11635;53.636;10.120;2023-03-23T12:07:39;7.38;;;3.25;;
10381;SDS011;11635;53.636;10.120;2023-03-23T12:10:14;8.48;;;3.75;;
10381;SDS011;11635;53.636;10.120;2023-03-23T12:12:46;8.93;;;3.75;;
10381;SDS011;11635;53.636;10.120;2023-03-23T12:15:18;10.43;;;3.70;;
10381;SDS011;11635;53.636;10.120;2023-03-23T12:17:48;9.52;;;3.38;;
10381;SDS011;11635;53.636;10.120;2023-03-23T12:20:20;9.40;;;3.28;;
10381;SDS011;11635;53.636;10.120;2023-03-23T12:22:52;13.90;;;3.80;;
10381;SDS011;11635;53.636;10.120;2023-03-23T12:25:33;7.53;;;3.50;;
10381;SDS011;11635;53.636;10.120;2023-03-23T12:28:07;9.90;;;3.63;;
10381;SDS011;11635;53.636;10.120;2023-03-23T12:30:38;11.93;;;3.85;;
10381;SDS011;11635;53.636;10.120;2023-03-23T12:33:11;12.00;;;4.07;;
10381;SDS011;11635;53.636;10.120;2023-03-23T12:35:43;6.10;;;3.85;;
10381;SDS011;11635;53.636;10.120;2023-03-23T12:38:21;9.52;;;3.40;;
10381;SDS011;11635;53.636;10.120;2023-03-23T12:40:53;9.55;;;3.47;;
10381;SDS011;11635;53.636;10.120;2023-03-23T12:43:24;9.13;;;3.20;;
10381;SDS011;11635;53.636;10.120;2023-03-23T12:46:09;5.47;;;3.40;;
10381;SDS011;11635;53.636;10.120;2023-03-23T12:48:38;10.77;;;4.22;;
10381;SDS011;11635;53.636;10.120;2023-03-23T12:51:10;11.27;;;3.90;;
10381;SDS011;11635;53.636;10.120;2023-03-23T12:53:40;6.93;;;3.58;;
10381;SDS011;11635;53.636;10.120;2023-03-23T12:56:10;7.82;;;3.53;;
10381;SDS011;11635;53.636;10.120;2023-03-23T12:58:42;10.52;;;3.50;;
10381;SDS011;11635;53.636;10.120;2023-03-23T13:01:11;10.27;;;4.07;;
10381;SDS011;11635;53.636;10.120;2023-03-23T13:03:42;7.85;;;3.42;;
10381;SDS011;11635;53.636;10.120;2023-03-23T13:06:12;8.63;;;4.07;;
10381;SDS011;11635;53.636;10.120;2023-03-23T13:08:42;8.57;;;3.67;;
10381;SDS011;11635;53.636;10.120;2023-03-23T13:11:11;11.77;;;3.63;;
10381;SDS011;11635;53.636;10.120;2023-03-23T13:13:43;8.93;;;3.35;;
10381;SDS011;11635;53.636;10.120;2023-03-23T13:16:11;8.25;;;3.53;;
10381;SDS011;11635;53.636;10.120;2023-03-23T13:18:40;9.23;;;3.38;;
10381;SDS011;11635;53.636;10.120;2023-03-23T13:21:13;9.50;;;3.28;;
10381;SDS011;11635;53.636;10.120;2023-03-23T13:23:41;9.63;;;3.70;;
10381;SDS011;11635;53.636;10.120;2023-03-23T13:26:09;7.40;;;3.03;;
10381;SDS011;11635;53.636;10.120;2023-03-23T13:28:48;7.70;;;3.35;;
10381;SDS011;11635;53.636;10.120;2023-03-23T13:31:15;7.97;;;3.17;;
10381;SDS011;11635;53.636;10.120;2023-03-23T13:33:45;9.07;;;3.63;;
10381;SDS011;11635;53.636;10.120;2023-03-23T13:36:12;6.35;;;2.92;;
10381;SDS011;11635;53.636;10.120;2023-03-23T13:38:44;6.88;;;3.10;;
10381;SDS011;11635;53.636;10.120;2023-03-23T13:41:12;6.18;;;2.67;;
10381;SDS011;11635;53.636;10.120;2023-03-23T13:43:39;7.60;;;3.08;;
10381;SDS011;11635;53.636;10.120;2023-03-23T13:46:09;6.38;;;3.10;;
10381;SDS011;11635;53.636;10.120;2023-03-23T13:48:40;2.92;;;2.15;;
10381;SDS011;11635;53.636;10.120;2023-03-23T13:51:23;6.22;;;2.67;;
10381;SDS011;11635;53.636;10.120;2023-03-23T13:53:49;7.38;;;2.42;;
10381;SDS011;11635;53.636;10.120;2023-03-23T13:56:17;4.82;;;2.78;;
10381;SDS011;11635;53.636;10.120;2023-03-23T13:58:45;6.45;;;2.80;;
10381;SDS011;11635;53.636;10.120;2023-03-23T14:01:15;5.60;;;2.80;;
10381;SDS011;11635;53.636;10.120;2023-03-23T14:03:43;3.35;;;2.08;;
10381;SDS011;11635;53.636;10.120;2023-03-23T14:06:12;4.25;;;2.38;;
10381;SDS011;11635;53.636;10.120;2023-03-23T14:08:41;6.32;;;2.20;;
10381;SDS011;11635;53.636;10.120;2023-03-23T14:11:12;5.00;;;2.08;;
10381;SDS011;11635;53.636;10.120;2023-03-23T14:13:41;2.67;;;1.30;;
10381;SDS011;11635;53.636;10.120;2023-03-23T14:16:15;2.30;;;1.10;;
10381;SDS011;11635;53.636;10.120;2023-03-23T14:18:42;7.28;;;2.20;;
10381;SDS011;11635;53.636;10.120;2023-03-23T14:21:14;2.58;;;1.27;;
10381;SDS011;11635;53.636;10.120;2023-03-23T14:23:41;4.35;;;1.70;;
10381;SDS011;11635;53.636;10.120;2023-03-23T14:26:10;4.53;;;1.83;;
10381;SDS011;11635;53.636;10.120;2023-03-23T14:28:39;3.42;;;1.48;;
10381;SDS011;11635;53.636;10.120;2023-03-23T14:31:10;5.72;;;1.85;;
10381;SDS011;11635;53.636;10.120;2023-03-23T14:33:41;5.00;;;1.90;;